Hjaltland — VSTY8 — position and weather

sailwx.info

Track history (hours):
 
Tides and Currents Weather Stations Pressure Air Temp Water Temp Dewpoint Dewpoint Depression Visibility Wind Speed Wind Dir Waves Ship Positions

Hjaltland

Operator: NorthLink Orkey & Shetland Ferries Ltd

Last reported at 2019-Oct-18 20:59 UTC. Time now 2019-Oct-19 04:36 UTC.
Position N 57°48' W 001°38'.

Type: Ship. MMSI: 235450000.

Date/timePositionNaut miles runAvg speedWind from/ knotsBaromVisibWave heightAir tempDewpointWater temp
2019-Oct-18 20:59N 57°48' W 001°38'815.8
2019-Oct-18 20:31N 57°40' W 001°39'816.0
2019-Oct-18 20:01N 57°32' W 001°38'815.9
2019-Oct-18 19:31N 57°24' W 001°38'714.5
2019-Oct-18 19:00N 57°19' W 001°48'714.9
2019-Oct-18 18:31N 57°13' W 001°56'612.6
2019-Oct-18 18:01N 57°08' W 002°04'1 1.2
2019-Oct-18 17:30N 57°09' W 002°05'0 0.0
2019-Oct-18 17:00N 57°09' W 002°05'0 0.0
2019-Oct-18 16:30N 57°09' W 002°05'0 0.0
2019-Oct-18 16:00N 57°09' W 002°05'0 0.0
2019-Oct-18 15:30N 57°09' W 002°05'0 0.0
2019-Oct-18 15:00N 57°09' W 002°05'0 0.0
2019-Oct-18 14:30N 57°09' W 002°05'0 0.0
2019-Oct-18 14:00N 57°09' W 002°05'0 0.0
2019-Oct-18 13:30N 57°09' W 002°05'0 0.0
2019-Oct-18 13:00N 57°09' W 002°05'0 0.0
2019-Oct-18 12:30N 57°09' W 002°05'0 0.0
2019-Oct-18 12:00N 57°09' W 002°05'0 0.0
2019-Oct-18 11:30N 57°09' W 002°05'0 0.0
2019-Oct-18 11:00N 57°09' W 002°05'0 0.0
2019-Oct-18 10:30N 57°09' W 002°05'0 0.0
2019-Oct-18 10:00N 57°09' W 002°05'0 0.0
2019-Oct-18 09:30N 57°09' W 002°05'0 0.0
2019-Oct-18 09:00N 57°09' W 002°05'0 0.0
2019-Oct-18 08:30N 57°09' W 002°05'0 0.0
2019-Oct-18 08:00N 57°09' W 002°05'0 0.0
2019-Oct-18 07:30N 57°09' W 002°05'0 0.0
2019-Oct-18 07:00N 57°09' W 002°05'0 0.0
2019-Oct-18 06:30N 57°09' W 002°05'0 0.0
2019-Oct-18 05:59N 57°09' W 002°05'1 1.4
2019-Oct-18 05:30N 57°08' W 002°04'612.7
2019-Oct-18 05:00N 57°13' W 001°56'712.8
2019-Oct-18 04:27N 57°19' W 001°49'614.7
2019-Oct-18 04:01N 57°24' W 001°42'917.5
2019-Oct-18 03:31N 57°33' W 001°39'917.7
2019-Oct-18 03:01N 57°42' W 001°38'8 0.3
2019-Oct-16 21:02N 57°50' W 001°37'115.9
2019-Oct-16 20:59N 57°49' W 001°37'715.6
2019-Oct-16 20:30N 57°41' W 001°37'815.5
2019-Oct-16 20:00N 57°34' W 001°38'816.1
2019-Oct-16 19:31N 57°26' W 001°40'815.7
2019-Oct-16 19:00N 57°19' W 001°47'816.4
2019-Oct-16 18:31N 57°12' W 001°56'611.7
2019-Oct-16 18:00N 57°09' W 002°05'0 0.6
2019-Oct-16 17:28N 57°09' W 002°05'0 0.0
2019-Oct-16 16:58N 57°09' W 002°05'0 0.0
2019-Oct-16 16:28N 57°09' W 002°05'0 0.0
2019-Oct-16 15:58N 57°09' W 002°05'0 0.0
2019-Oct-16 15:28N 57°09' W 002°05'0 0.0
2019-Oct-16 14:58N 57°09' W 002°05'0 0.0
2019-Oct-16 14:28N 57°09' W 002°05'0 0.0
2019-Oct-16 13:59N 57°09' W 002°05'0 0.0
2019-Oct-16 13:29N 57°09' W 002°05'0 0.0
2019-Oct-16 12:59N 57°09' W 002°05'0 0.0
2019-Oct-16 12:29N 57°09' W 002°05'0 0.0
2019-Oct-16 11:59N 57°09' W 002°05'0 0.0
2019-Oct-16 11:29N 57°09' W 002°05'0 0.0
2019-Oct-16 10:59N 57°09' W 002°05'0 0.0
2019-Oct-16 10:29N 57°09' W 002°05'0 0.0
2019-Oct-16 09:59N 57°09' W 002°05'0 0.0
2019-Oct-16 09:29N 57°09' W 002°05'0 0.0
2019-Oct-16 08:59N 57°09' W 002°05'0 0.0
2019-Oct-16 08:29N 57°09' W 002°05'0 0.0
2019-Oct-16 07:59N 57°09' W 002°05'0 0.0
2019-Oct-16 07:29N 57°09' W 002°05'0 0.0
2019-Oct-16 06:59N 57°09' W 002°05'0 0.0
2019-Oct-16 06:29N 57°09' W 002°05'0 0.0
2019-Oct-16 05:59N 57°09' W 002°05'1 1.4
2019-Oct-16 05:31N 57°08' W 002°04'713.4
2019-Oct-16 05:00N 57°13' W 001°56'712.1
2019-Oct-16 04:26N 57°19' W 001°48'512.6
2019-Oct-16 04:00N 57°23' W 001°43'715.0
2019-Oct-16 03:30N 57°30' W 001°38'918.8
2019-Oct-16 03:00N 57°40' W 001°38'9 0.3
2019-Oct-14 20:46N 57°49' W 001°38'416.2
2019-Oct-14 20:30N 57°45' W 001°39'816.6
2019-Oct-14 20:00N 57°37' W 001°39'816.9
2019-Oct-14 19:31N 57°28' W 001°40'816.9
2019-Oct-14 19:01N 57°21' W 001°48'816.0
2019-Oct-14 18:31N 57°14' W 001°56'714.5
2019-Oct-14 18:00N 57°09' W 002°04'1 1.3
2019-Oct-14 17:29N 57°09' W 002°05'0 0.0
2019-Oct-14 16:58N 57°09' W 002°05'0 0.0
2019-Oct-14 16:29N 57°09' W 002°05'0 0.0
2019-Oct-14 15:59N 57°09' W 002°05'0 0.0
2019-Oct-14 15:28N 57°09' W 002°05'0 0.0
2019-Oct-14 14:59N 57°09' W 002°05'0 0.0
2019-Oct-14 14:28N 57°09' W 002°05'0 0.0
2019-Oct-14 13:59N 57°09' W 002°05'0 0.0
2019-Oct-14 13:28N 57°09' W 002°05'0 0.0
2019-Oct-14 12:58N 57°09' W 002°05'0 0.0
2019-Oct-14 12:28N 57°09' W 002°05'0 0.0
2019-Oct-14 11:59N 57°09' W 002°05'0 0.0
2019-Oct-14 11:29N 57°09' W 002°05'0 0.0
2019-Oct-14 10:59N 57°09' W 002°05'0 0.0
2019-Oct-14 10:29N 57°09' W 002°05'0 0.0
2019-Oct-14 09:59N 57°09' W 002°05'0 0.0
2019-Oct-14 09:29N 57°09' W 002°05'0 0.0
2019-Oct-14 08:59N 57°09' W 002°05'0 0.0
2019-Oct-14 08:29N 57°09' W 002°05'0 0.0
2019-Oct-14 07:59N 57°09' W 002°05'0 0.0
2019-Oct-14 07:29N 57°09' W 002°05'0 0.0
2019-Oct-14 06:58N 57°09' W 002°05'0 0.0
2019-Oct-14 06:28N 57°09' W 002°05'0 0.0
2019-Oct-14 05:59N 57°09' W 002°05'1 1.5
2019-Oct-14 05:30N 57°09' W 002°04'712.9
2019-Oct-14 05:00N 57°13' W 001°56'815.5
2019-Oct-14 04:30N 57°20' W 001°48'917.9
2019-Oct-14 04:00N 57°28' W 001°41'918.1
2019-Oct-14 03:30N 57°37' W 001°38'91 3.3
2019-Oct-13 00:11N 59°03' W 002°27'314.5
2019-Oct-12 23:58N 59°01' W 002°31'714.0
2019-Oct-12 23:30N 59°00' W 002°43'714.3
2019-Oct-12 23:00N 59°01' W 002°57'1 0.9
2019-Oct-12 21:50N 58°60' W 002°58'413.2
2019-Oct-12 21:30N 59°01' W 002°50'1019.6
2019-Oct-12 21:00N 58°54' W 002°36'6622.7
2019-Oct-12 18:06N 57°53' W 001°49'223.5
2019-Oct-12 18:01N 57°51' W 001°48'1224.3
2019-Oct-12 17:31N 57°39' W 001°41'1224.1
2019-Oct-12 17:01N 57°27' W 001°40'1224.5
2019-Oct-12 16:31N 57°17' W 001°52'1121.4
2019-Oct-12 16:01N 57°09' W 002°04'1 1.5
2019-Oct-12 15:29N 57°09' W 002°05'0 0.0
2019-Oct-12 14:58N 57°09' W 002°05'0 0.0
2019-Oct-12 14:29N 57°09' W 002°05'0 0.0
2019-Oct-12 13:59N 57°09' W 002°05'0 0.0
2019-Oct-12 13:29N 57°09' W 002°05'0 0.0
2019-Oct-12 12:59N 57°09' W 002°05'0 0.0
2019-Oct-12 12:28N 57°09' W 002°05'0 0.0
2019-Oct-12 11:58N 57°09' W 002°05'0 0.0
2019-Oct-12 11:28N 57°09' W 002°05'0 0.0
2019-Oct-12 10:59N 57°09' W 002°05'0 0.0
2019-Oct-12 10:29N 57°09' W 002°05'0 0.0
2019-Oct-12 09:59N 57°09' W 002°05'0 0.0
2019-Oct-12 09:28N 57°09' W 002°05'0 0.0
2019-Oct-12 08:59N 57°09' W 002°05'0 0.0
2019-Oct-12 08:29N 57°09' W 002°05'0 0.0
2019-Oct-12 08:00N 57°09' W 002°05'0 0.0
2019-Oct-12 07:30N 57°09' W 002°05'0 0.0
2019-Oct-12 06:59N 57°09' W 002°05'0 0.0
2019-Oct-12 06:30N 57°09' W 002°05'0 0.0
2019-Oct-12 05:59N 57°09' W 002°05'1 1.4
2019-Oct-12 05:30N 57°08' W 002°04'713.8
2019-Oct-12 05:00N 57°14' W 001°56'1020.0
2019-Oct-12 04:30N 57°22' W 001°46'1019.4
2019-Oct-12 04:01N 57°32' W 001°42'1019.9
2019-Oct-12 03:30N 57°41' W 001°44'8121.5
2019-Oct-11 23:45N 58°57' W 002°38'520.0
2019-Oct-11 23:30N 59°00' W 002°46'611.8
2019-Oct-11 22:58N 58°60' W 002°58'0 0.0
2019-Oct-11 21:54N 58°60' W 002°58'2 5.4
2019-Oct-11 21:30N 59°01' W 002°55'816.3
2019-Oct-11 21:01N 59°00' W 002°39'8 0.4
2019-Oct-11 00:19N 59°04' W 002°27'513.5
2019-Oct-10 23:58N 59°01' W 002°33'714.7
2019-Oct-10 23:30N 59°00' W 002°46'612.5
2019-Oct-10 23:00N 59°00' W 002°58'0 0.3
2019-Oct-10 21:51N 58°60' W 002°58'411.1
2019-Oct-10 21:29N 59°01' W 002°51'1020.5
2019-Oct-10 21:00N 58°54' W 002°36'6823.0
2019-Oct-10 18:03N 57°51' W 001°49'124.2
2019-Oct-10 18:01N 57°50' W 001°49'1224.2
2019-Oct-10 17:31N 57°38' W 001°41'1223.0
2019-Oct-10 17:01N 57°27' W 001°42'1224.3
2019-Oct-10 16:31N 57°16' W 001°52'1019.9
2019-Oct-10 16:00N 57°08' W 002°04'1 1.4
2019-Oct-10 15:30N 57°09' W 002°05'0 0.0
2019-Oct-10 15:00N 57°09' W 002°05'0 0.0
2019-Oct-10 14:30N 57°09' W 002°05'0 0.0
2019-Oct-10 14:00N 57°09' W 002°05'0 0.0
2019-Oct-10 13:30N 57°09' W 002°05'0 0.0
2019-Oct-10 13:00N 57°09' W 002°05'0 0.0
2019-Oct-10 12:30N 57°09' W 002°05'0 0.0
2019-Oct-10 12:00N 57°09' W 002°05'0 0.0
2019-Oct-10 11:30N 57°09' W 002°05'0 0.0
2019-Oct-10 11:00N 57°09' W 002°05'0 0.0
2019-Oct-10 10:30N 57°09' W 002°05'0 0.0
2019-Oct-10 10:00N 57°09' W 002°05'0 0.0
2019-Oct-10 09:30N 57°09' W 002°05'0 0.0
2019-Oct-10 09:00N 57°09' W 002°05'0 0.0
2019-Oct-10 08:30N 57°09' W 002°05'0 0.0
2019-Oct-10 08:00N 57°09' W 002°05'0 0.0
2019-Oct-10 07:30N 57°09' W 002°05'0 0.0
2019-Oct-10 07:00N 57°09' W 002°05'0 0.0
2019-Oct-10 06:30N 57°09' W 002°05'0 0.0
2019-Oct-10 06:00N 57°09' W 002°05'1 1.3
2019-Oct-10 05:30N 57°08' W 002°04'612.0
2019-Oct-10 05:00N 57°13' W 001°57'917.5
2019-Oct-10 04:30N 57°20' W 001°48'1121.3
2019-Oct-10 04:00N 57°30' W 001°38'1121.7
2019-Oct-10 03:31N 57°40' W 001°39'8522.3
2019-Oct-09 23:43N 58°59' W 002°40'521.3
2019-Oct-09 23:30N 59°00' W 002°48'5 3.3
2019-Oct-09 21:54N 58°60' W 002°58'0 0.8
2019-Oct-09 21:30N 59°00' W 002°58'816.4
2019-Oct-09 21:00N 59°01' W 002°42'8 0.4
2019-Oct-09 00:13N 59°04' W 002°28'313.3
2019-Oct-09 00:00N 59°02' W 002°32'713.9
2019-Oct-08 23:30N 59°01' W 002°45'713.0
2019-Oct-08 23:00N 59°01' W 002°58'1 0.7
2019-Oct-08 21:55N 58°60' W 002°58'512.3
2019-Oct-08 21:30N 59°00' W 002°49'1121.7
2019-Oct-08 21:00N 58°53' W 002°34'  
Track history (hours):
 
Tides and Currents Weather Stations Pressure Air Temp Water Temp Dewpoint Dewpoint Depression Visibility Wind Speed Wind Dir Waves Ship Positions

Hjaltland

Operator: NorthLink Orkey & Shetland Ferries Ltd

Last reported at 2019-Oct-18 20:59 UTC. Time now 2019-Oct-19 04:36 UTC.
Position N 57°48' W 001°38'.

Type: Ship. MMSI: 235450000.

Date/timePositionNaut miles runAvg speedWind from/ knotsBaromVisibWave heightAir tempDewpointWater temp
2019-Oct-18 20:59N 57°48' W 001°38'815.8
2019-Oct-18 20:31N 57°40' W 001°39'816.0
2019-Oct-18 20:01N 57°32' W 001°38'815.9
2019-Oct-18 19:31N 57°24' W 001°38'714.5
2019-Oct-18 19:00N 57°19' W 001°48'714.9
2019-Oct-18 18:31N 57°13' W 001°56'612.6
2019-Oct-18 18:01N 57°08' W 002°04'1 1.2
2019-Oct-18 17:30N 57°09' W 002°05'0 0.0
2019-Oct-18 17:00N 57°09' W 002°05'0 0.0
2019-Oct-18 16:30N 57°09' W 002°05'0 0.0
2019-Oct-18 16:00N 57°09' W 002°05'0 0.0
2019-Oct-18 15:30N 57°09' W 002°05'0 0.0
2019-Oct-18 15:00N 57°09' W 002°05'0 0.0
2019-Oct-18 14:30N 57°09' W 002°05'0 0.0
2019-Oct-18 14:00N 57°09' W 002°05'0 0.0
2019-Oct-18 13:30N 57°09' W 002°05'0 0.0
2019-Oct-18 13:00N 57°09' W 002°05'0 0.0
2019-Oct-18 12:30N 57°09' W 002°05'0 0.0
2019-Oct-18 12:00N 57°09' W 002°05'0 0.0
2019-Oct-18 11:30N 57°09' W 002°05'0 0.0
2019-Oct-18 11:00N 57°09' W 002°05'0 0.0
2019-Oct-18 10:30N 57°09' W 002°05'0 0.0
2019-Oct-18 10:00N 57°09' W 002°05'0 0.0
2019-Oct-18 09:30N 57°09' W 002°05'0 0.0
2019-Oct-18 09:00N 57°09' W 002°05'0 0.0
2019-Oct-18 08:30N 57°09' W 002°05'0 0.0
2019-Oct-18 08:00N 57°09' W 002°05'0 0.0
2019-Oct-18 07:30N 57°09' W 002°05'0 0.0
2019-Oct-18 07:00N 57°09' W 002°05'0 0.0
2019-Oct-18 06:30N 57°09' W 002°05'0 0.0
2019-Oct-18 05:59N 57°09' W 002°05'1 1.4
2019-Oct-18 05:30N 57°08' W 002°04'612.7
2019-Oct-18 05:00N 57°13' W 001°56'712.8
2019-Oct-18 04:27N 57°19' W 001°49'614.7
2019-Oct-18 04:01N 57°24' W 001°42'917.5
2019-Oct-18 03:31N 57°33' W 001°39'917.7
2019-Oct-18 03:01N 57°42' W 001°38'8 0.3
2019-Oct-16 21:02N 57°50' W 001°37'115.9
2019-Oct-16 20:59N 57°49' W 001°37'715.6
2019-Oct-16 20:30N 57°41' W 001°37'815.5
2019-Oct-16 20:00N 57°34' W 001°38'816.1
2019-Oct-16 19:31N 57°26' W 001°40'815.7
2019-Oct-16 19:00N 57°19' W 001°47'816.4
2019-Oct-16 18:31N 57°12' W 001°56'611.7
2019-Oct-16 18:00N 57°09' W 002°05'0 0.6
2019-Oct-16 17:28N 57°09' W 002°05'0 0.0
2019-Oct-16 16:58N 57°09' W 002°05'0 0.0
2019-Oct-16 16:28N 57°09' W 002°05'0 0.0
2019-Oct-16 15:58N 57°09' W 002°05'0 0.0
2019-Oct-16 15:28N 57°09' W 002°05'0 0.0
2019-Oct-16 14:58N 57°09' W 002°05'0 0.0
2019-Oct-16 14:28N 57°09' W 002°05'0 0.0
2019-Oct-16 13:59N 57°09' W 002°05'0 0.0
2019-Oct-16 13:29N 57°09' W 002°05'0 0.0
2019-Oct-16 12:59N 57°09' W 002°05'0 0.0
2019-Oct-16 12:29N 57°09' W 002°05'0 0.0
2019-Oct-16 11:59N 57°09' W 002°05'0 0.0
2019-Oct-16 11:29N 57°09' W 002°05'0 0.0
2019-Oct-16 10:59N 57°09' W 002°05'0 0.0
2019-Oct-16 10:29N 57°09' W 002°05'0 0.0
2019-Oct-16 09:59N 57°09' W 002°05'0 0.0
2019-Oct-16 09:29N 57°09' W 002°05'0 0.0
2019-Oct-16 08:59N 57°09' W 002°05'0 0.0
2019-Oct-16 08:29N 57°09' W 002°05'0 0.0
2019-Oct-16 07:59N 57°09' W 002°05'0 0.0
2019-Oct-16 07:29N 57°09' W 002°05'0 0.0
2019-Oct-16 06:59N 57°09' W 002°05'0 0.0
2019-Oct-16 06:29N 57°09' W 002°05'0 0.0
2019-Oct-16 05:59N 57°09' W 002°05'1 1.4
2019-Oct-16 05:31N 57°08' W 002°04'713.4
2019-Oct-16 05:00N 57°13' W 001°56'712.1
2019-Oct-16 04:26N 57°19' W 001°48'512.6
2019-Oct-16 04:00N 57°23' W 001°43'715.0
2019-Oct-16 03:30N 57°30' W 001°38'918.8
2019-Oct-16 03:00N 57°40' W 001°38'9 0.3
2019-Oct-14 20:46N 57°49' W 001°38'416.2
2019-Oct-14 20:30N 57°45' W 001°39'816.6
2019-Oct-14 20:00N 57°37' W 001°39'816.9
2019-Oct-14 19:31N 57°28' W 001°40'816.9
2019-Oct-14 19:01N 57°21' W 001°48'816.0
2019-Oct-14 18:31N 57°14' W 001°56'714.5
2019-Oct-14 18:00N 57°09' W 002°04'1 1.3
2019-Oct-14 17:29N 57°09' W 002°05'0 0.0
2019-Oct-14 16:58N 57°09' W 002°05'0 0.0
2019-Oct-14 16:29N 57°09' W 002°05'0 0.0
2019-Oct-14 15:59N 57°09' W 002°05'0 0.0
2019-Oct-14 15:28N 57°09' W 002°05'0 0.0
2019-Oct-14 14:59N 57°09' W 002°05'0 0.0
2019-Oct-14 14:28N 57°09' W 002°05'0 0.0
2019-Oct-14 13:59N 57°09' W 002°05'0 0.0
2019-Oct-14 13:28N 57°09' W 002°05'0 0.0
2019-Oct-14 12:58N 57°09' W 002°05'0 0.0
2019-Oct-14 12:28N 57°09' W 002°05'0 0.0
2019-Oct-14 11:59N 57°09' W 002°05'0 0.0
2019-Oct-14 11:29N 57°09' W 002°05'0 0.0
2019-Oct-14 10:59N 57°09' W 002°05'0 0.0
2019-Oct-14 10:29N 57°09' W 002°05'0 0.0
2019-Oct-14 09:59N 57°09' W 002°05'0 0.0
2019-Oct-14 09:29N 57°09' W 002°05'0 0.0
2019-Oct-14 08:59N 57°09' W 002°05'0 0.0
2019-Oct-14 08:29N 57°09' W 002°05'0 0.0
2019-Oct-14 07:59N 57°09' W 002°05'0 0.0
2019-Oct-14 07:29N 57°09' W 002°05'0 0.0
2019-Oct-14 06:58N 57°09' W 002°05'0 0.0
2019-Oct-14 06:28N 57°09' W 002°05'0 0.0
2019-Oct-14 05:59N 57°09' W 002°05'1 1.5
2019-Oct-14 05:30N 57°09' W 002°04'712.9
2019-Oct-14 05:00N 57°13' W 001°56'815.5
2019-Oct-14 04:30N 57°20' W 001°48'917.9
2019-Oct-14 04:00N 57°28' W 001°41'918.1
2019-Oct-14 03:30N 57°37' W 001°38'91 3.3
2019-Oct-13 00:11N 59°03' W 002°27'314.5
2019-Oct-12 23:58N 59°01' W 002°31'714.0
2019-Oct-12 23:30N 59°00' W 002°43'714.3
2019-Oct-12 23:00N 59°01' W 002°57'1 0.9
2019-Oct-12 21:50N 58°60' W 002°58'413.2
2019-Oct-12 21:30N 59°01' W 002°50'1019.6
2019-Oct-12 21:00N 58°54' W 002°36'6622.7
2019-Oct-12 18:06N 57°53' W 001°49'223.5
2019-Oct-12 18:01N 57°51' W 001°48'1224.3
2019-Oct-12 17:31N 57°39' W 001°41'1224.1
2019-Oct-12 17:01N 57°27' W 001°40'1224.5
2019-Oct-12 16:31N 57°17' W 001°52'1121.4
2019-Oct-12 16:01N 57°09' W 002°04'1 1.5
2019-Oct-12 15:29N 57°09' W 002°05'0 0.0
2019-Oct-12 14:58N 57°09' W 002°05'0 0.0
2019-Oct-12 14:29N 57°09' W 002°05'0 0.0
2019-Oct-12 13:59N 57°09' W 002°05'0 0.0
2019-Oct-12 13:29N 57°09' W 002°05'0 0.0
2019-Oct-12 12:59N 57°09' W 002°05'0 0.0
2019-Oct-12 12:28N 57°09' W 002°05'0 0.0
2019-Oct-12 11:58N 57°09' W 002°05'0 0.0
2019-Oct-12 11:28N 57°09' W 002°05'0 0.0
2019-Oct-12 10:59N 57°09' W 002°05'0 0.0
2019-Oct-12 10:29N 57°09' W 002°05'0 0.0
2019-Oct-12 09:59N 57°09' W 002°05'0 0.0
2019-Oct-12 09:28N 57°09' W 002°05'0 0.0
2019-Oct-12 08:59N 57°09' W 002°05'0 0.0
2019-Oct-12 08:29N 57°09' W 002°05'0 0.0
2019-Oct-12 08:00N 57°09' W 002°05'0 0.0
2019-Oct-12 07:30N 57°09' W 002°05'0 0.0
2019-Oct-12 06:59N 57°09' W 002°05'0 0.0
2019-Oct-12 06:30N 57°09' W 002°05'0 0.0
2019-Oct-12 05:59N 57°09' W 002°05'1 1.4
2019-Oct-12 05:30N 57°08' W 002°04'713.8
2019-Oct-12 05:00N 57°14' W 001°56'1020.0
2019-Oct-12 04:30N 57°22' W 001°46'1019.4
2019-Oct-12 04:01N 57°32' W 001°42'1019.9
2019-Oct-12 03:30N 57°41' W 001°44'8121.5
2019-Oct-11 23:45N 58°57' W 002°38'520.0
2019-Oct-11 23:30N 59°00' W 002°46'611.8
2019-Oct-11 22:58N 58°60' W 002°58'0 0.0
2019-Oct-11 21:54N 58°60' W 002°58'2 5.4
2019-Oct-11 21:30N 59°01' W 002°55'816.3
2019-Oct-11 21:01N 59°00' W 002°39'8 0.4
2019-Oct-11 00:19N 59°04' W 002°27'513.5
2019-Oct-10 23:58N 59°01' W 002°33'714.7
2019-Oct-10 23:30N 59°00' W 002°46'612.5
2019-Oct-10 23:00N 59°00' W 002°58'0 0.3
2019-Oct-10 21:51N 58°60' W 002°58'411.1
2019-Oct-10 21:29N 59°01' W 002°51'1020.5
2019-Oct-10 21:00N 58°54' W 002°36'6823.0
2019-Oct-10 18:03N 57°51' W 001°49'124.2
2019-Oct-10 18:01N 57°50' W 001°49'1224.2
2019-Oct-10 17:31N 57°38' W 001°41'1223.0
2019-Oct-10 17:01N 57°27' W 001°42'1224.3
2019-Oct-10 16:31N 57°16' W 001°52'1019.9
2019-Oct-10 16:00N 57°08' W 002°04'1 1.4
2019-Oct-10 15:30N 57°09' W 002°05'0 0.0
2019-Oct-10 15:00N 57°09' W 002°05'0 0.0
2019-Oct-10 14:30N 57°09' W 002°05'0 0.0
2019-Oct-10 14:00N 57°09' W 002°05'0 0.0
2019-Oct-10 13:30N 57°09' W 002°05'0 0.0
2019-Oct-10 13:00N 57°09' W 002°05'0 0.0
2019-Oct-10 12:30N 57°09' W 002°05'0 0.0
2019-Oct-10 12:00N 57°09' W 002°05'0 0.0
2019-Oct-10 11:30N 57°09' W 002°05'0 0.0
2019-Oct-10 11:00N 57°09' W 002°05'0 0.0
2019-Oct-10 10:30N 57°09' W 002°05'0 0.0
2019-Oct-10 10:00N 57°09' W 002°05'0 0.0
2019-Oct-10 09:30N 57°09' W 002°05'0 0.0
2019-Oct-10 09:00N 57°09' W 002°05'0 0.0
2019-Oct-10 08:30N 57°09' W 002°05'0 0.0
2019-Oct-10 08:00N 57°09' W 002°05'0 0.0
2019-Oct-10 07:30N 57°09' W 002°05'0 0.0
2019-Oct-10 07:00N 57°09' W 002°05'0 0.0
2019-Oct-10 06:30N 57°09' W 002°05'0 0.0
2019-Oct-10 06:00N 57°09' W 002°05'1 1.3
2019-Oct-10 05:30N 57°08' W 002°04'612.0
2019-Oct-10 05:00N 57°13' W 001°57'917.5
2019-Oct-10 04:30N 57°20' W 001°48'1121.3
2019-Oct-10 04:00N 57°30' W 001°38'1121.7
2019-Oct-10 03:31N 57°40' W 001°39'8522.3
2019-Oct-09 23:43N 58°59' W 002°40'521.3
2019-Oct-09 23:30N 59°00' W 002°48'5 3.3
2019-Oct-09 21:54N 58°60' W 002°58'0 0.8
2019-Oct-09 21:30N 59°00' W 002°58'816.4
2019-Oct-09 21:00N 59°01' W 002°42'8 0.4
2019-Oct-09 00:13N 59°04' W 002°28'313.3
2019-Oct-09 00:00N 59°02' W 002°32'713.9
2019-Oct-08 23:30N 59°01' W 002°45'713.0
2019-Oct-08 23:00N 59°01' W 002°58'1 0.7
2019-Oct-08 21:55N 58°60' W 002°58'512.3
2019-Oct-08 21:30N 59°00' W 002°49'1121.7
2019-Oct-08 21:00N 58°53' W 002°34'  

Dump ship's entire track history